sensor_id;sensor_type;location;lat;lon;timestamp;pressure;altitude;pressure_sealevel;temperature;humidity
22662;BME280;11497;52.222;21.246;2023-04-26T00:02:08;99526.69;;;7.34;100.00
22662;BME280;11497;52.222;21.246;2023-04-26T00:04:38;99531.00;;;7.35;100.00
22662;BME280;11497;52.222;21.246;2023-04-26T00:07:06;99537.84;;;7.38;100.00
22662;BME280;11497;52.222;21.246;2023-04-26T00:09:34;99531.00;;;7.35;100.00
22662;BME280;11497;52.222;21.246;2023-04-26T00:12:02;99537.13;;;7.34;100.00
22662;BME280;11497;52.222;21.246;2023-04-26T00:14:30;99545.94;;;7.30;100.00
22662;BME280;11497;52.222;21.246;2023-04-26T00:16:58;99538.72;;;7.37;100.00
22662;BME280;11497;52.222;21.246;2023-04-26T00:19:25;99548.78;;;7.47;100.00
22662;BME280;11497;52.222;21.246;2023-04-26T00:21:54;99550.97;;;7.59;100.00
22662;BME280;11497;52.222;21.246;2023-04-26T00:24:21;99549.59;;;7.49;100.00
22662;BME280;11497;52.222;21.246;2023-04-26T00:26:55;99555.69;;;7.48;100.00
22662;BME280;11497;52.222;21.246;2023-04-26T00:29:23;99554.31;;;7.38;100.00
22662;BME280;11497;52.222;21.246;2023-04-26T00:31:51;99550.59;;;7.45;100.00
22662;BME280;11497;52.222;21.246;2023-04-26T00:34:19;99554.84;;;7.48;100.00
22662;BME280;11497;52.222;21.246;2023-04-26T00:36:47;99560.53;;;7.34;100.00
22662;BME280;11497;52.222;21.246;2023-04-26T00:39:15;99556.22;;;7.33;100.00
22662;BME280;11497;52.222;21.246;2023-04-26T00:41:43;99556.22;;;7.33;100.00
22662;BME280;11497;52.222;21.246;2023-04-26T00:44:11;99561.75;;;7.24;100.00
22662;BME280;11497;52.222;21.246;2023-04-26T00:46:39;99563.38;;;7.26;100.00
22662;BME280;11497;52.222;21.246;2023-04-26T00:49:07;99574.59;;;7.28;100.00
22662;BME280;11497;52.222;21.246;2023-04-26T00:51:36;99580.06;;;7.21;100.00
22662;BME280;11497;52.222;21.246;2023-04-26T00:54:04;99585.78;;;7.32;100.00
22662;BME280;11497;52.222;21.246;2023-04-26T00:56:32;99593.69;;;7.29;100.00
22662;BME280;11497;52.222;21.246;2023-04-26T00:59:00;99588.66;;;7.23;100.00
22662;BME280;11497;52.222;21.246;2023-04-26T01:01:28;99596.66;;;7.17;100.00
22662;BME280;11497;52.222;21.246;2023-04-26T01:03:56;99594.97;;;7.16;100.00
22662;BME280;11497;52.222;21.246;2023-04-26T01:06:28;99603.56;;;7.18;100.00
22662;BME280;11497;52.222;21.246;2023-04-26T01:09:03;99609.25;;;7.03;100.00
22662;BME280;11497;52.222;21.246;2023-04-26T01:11:35;99625.66;;;7.05;100.00
22662;BME280;11497;52.222;21.246;2023-04-26T01:14:04;99616.50;;;6.93;100.00
22662;BME280;11497;52.222;21.246;2023-04-26T01:16:33;99615.59;;;6.94;100.00
22662;BME280;11497;52.222;21.246;2023-04-26T01:19:08;99618.44;;;6.86;100.00
22662;BME280;11497;52.222;21.246;2023-04-26T01:21:39;99618.09;;;6.69;100.00
22662;BME280;11497;52.222;21.246;2023-04-26T01:24:12;99613.97;;;6.62;100.00
22662;BME280;11497;52.222;21.246;2023-04-26T01:26:41;99606.63;;;6.76;100.00
22662;BME280;11497;52.222;21.246;2023-04-26T01:29:15;99618.91;;;6.71;100.00
22662;BME280;11497;52.222;21.246;2023-04-26T01:31:44;99617.47;;;6.61;100.00
22662;BME280;11497;52.222;21.246;2023-04-26T01:34:12;99614.16;;;6.56;100.00
22662;BME280;11497;52.222;21.246;2023-04-26T01:36:41;99616.13;;;6.48;100.00
22662;BME280;11497;52.222;21.246;2023-04-26T01:39:09;99624.75;;;6.50;100.00
22662;BME280;11497;52.222;21.246;2023-04-26T01:41:37;99614.59;;;6.41;100.00
22662;BME280;11497;52.222;21.246;2023-04-26T01:44:05;99623.47;;;6.33;100.00
22662;BME280;11497;52.222;21.246;2023-04-26T01:46:33;99628.16;;;6.21;100.00
22662;BME280;11497;52.222;21.246;2023-04-26T01:49:01;99620.34;;;6.21;100.00
22662;BME280;11497;52.222;21.246;2023-04-26T01:51:29;99626.44;;;6.20;100.00
22662;BME280;11497;52.222;21.246;2023-04-26T01:53:58;99639.56;;;6.15;100.00
22662;BME280;11497;52.222;21.246;2023-04-26T01:56:26;99642.97;;;6.17;100.00
22662;BME280;11497;52.222;21.246;2023-04-26T01:58:54;99646.38;;;6.19;100.00
22662;BME280;11497;52.222;21.246;2023-04-26T02:01:23;99641.44;;;6.10;100.00
22662;BME280;11497;52.222;21.246;2023-04-26T02:03:51;99643.13;;;6.11;100.00
22662;BME280;11497;52.222;21.246;2023-04-26T02:06:19;99636.38;;;6.06;100.00
22662;BME280;11497;52.222;21.246;2023-04-26T02:08:48;99640.94;;;5.97;100.00
22662;BME280;11497;52.222;21.246;2023-04-26T02:11:16;99634.06;;;5.95;100.00
22662;BME280;11497;52.222;21.246;2023-04-26T02:13:44;99640.34;;;5.85;100.00
22662;BME280;11497;52.222;21.246;2023-04-26T02:16:12;99652.69;;;5.77;100.00
22662;BME280;11497;52.222;21.246;2023-04-26T02:18:42;99654.38;;;5.78;100.00
22662;BME280;11497;52.222;21.246;2023-04-26T02:21:11;99651.13;;;5.69;100.00
22662;BME280;11497;52.222;21.246;2023-04-26T02:23:39;99649.69;;;5.59;100.00
22662;BME280;11497;52.222;21.246;2023-04-26T02:26:09;99649.00;;;5.51;100.00
22662;BME280;11497;52.222;21.246;2023-04-26T02:28:38;99652.38;;;5.55;100.00
22662;BME280;11497;52.222;21.246;2023-04-26T02:31:06;99648.03;;;5.55;100.00
22662;BME280;11497;52.222;21.246;2023-04-26T02:33:34;99654.81;;;5.61;100.00
22662;BME280;11497;52.222;21.246;2023-04-26T02:36:04;99648.03;;;5.55;100.00
22662;BME280;11497;52.222;21.246;2023-04-26T02:38:35;99649.06;;;5.48;100.00
22662;BME280;11497;52.222;21.246;2023-04-26T02:41:05;99652.88;;;5.33;100.00
22662;BME280;11497;52.222;21.246;2023-04-26T02:43:33;99648.94;;;5.19;100.00
22662;BME280;11497;52.222;21.246;2023-04-26T02:46:01;99647.44;;;5.09;100.00
22662;BME280;11497;52.222;21.246;2023-04-26T02:48:30;99653.56;;;5.05;100.00
22662;BME280;11497;52.222;21.246;2023-04-26T02:50:58;99651.25;;;4.92;100.00
22662;BME280;11497;52.222;21.246;2023-04-26T02:53:26;99647.78;;;4.93;100.00
22662;BME280;11497;52.222;21.246;2023-04-26T02:55:55;99646.78;;;4.99;100.00
22662;BME280;11497;52.222;21.246;2023-04-26T02:58:22;99651.69;;;5.11;100.00
22662;BME280;11497;52.222;21.246;2023-04-26T03:00:50;99645.34;;;5.23;100.00
22662;BME280;11497;52.222;21.246;2023-04-26T03:03:18;99640.84;;;5.31;100.00
22662;BME280;11497;52.222;21.246;2023-04-26T03:05:47;99643.19;;;5.42;100.00
22662;BME280;11497;52.222;21.246;2023-04-26T03:08:15;99649.19;;;5.44;100.00
22662;BME280;11497;52.222;21.246;2023-04-26T03:10:46;99648.97;;;5.53;100.00
22662;BME280;11497;52.222;21.246;2023-04-26T03:13:14;99648.63;;;5.65;100.00
22662;BME280;11497;52.222;21.246;2023-04-26T03:15:45;99651.16;;;5.68;100.00
22662;BME280;11497;52.222;21.246;2023-04-26T03:18:14;99645.94;;;5.69;100.00
22662;BME280;11497;52.222;21.246;2023-04-26T03:20:42;99652.41;;;5.87;100.00
22662;BME280;11497;52.222;21.246;2023-04-26T03:23:10;99653.44;;;5.80;100.00
22662;BME280;11497;52.222;21.246;2023-04-26T03:25:38;99657.59;;;5.89;100.00
22662;BME280;11497;52.222;21.246;2023-04-26T03:28:06;99660.25;;;5.86;100.00
22662;BME280;11497;52.222;21.246;2023-04-26T03:30:34;99659.34;;;5.87;100.00
22662;BME280;11497;52.222;21.246;2023-04-26T03:33:02;99662.78;;;5.89;100.00
22662;BME280;11497;52.222;21.246;2023-04-26T03:35:30;99655.72;;;5.94;100.00
22662;BME280;11497;52.222;21.246;2023-04-26T03:37:59;99665.34;;;5.90;100.00
22662;BME280;11497;52.222;21.246;2023-04-26T03:40:27;99669.53;;;5.96;100.00
22662;BME280;11497;52.222;21.246;2023-04-26T03:42:54;99671.91;;;6.05;100.00
22662;BME280;11497;52.222;21.246;2023-04-26T03:45:22;99665.81;;;6.06;100.00
22662;BME280;11497;52.222;21.246;2023-04-26T03:47:51;99663.03;;;6.12;100.00
22662;BME280;11497;52.222;21.246;2023-04-26T03:50:20;99675.94;;;6.15;100.00
22662;BME280;11497;52.222;21.246;2023-04-26T03:52:48;99665.47;;;6.18;100.00
22662;BME280;11497;52.222;21.246;2023-04-26T03:55:16;99679.19;;;6.23;100.00
22662;BME280;11497;52.222;21.246;2023-04-26T03:57:44;99668.88;;;6.20;100.00
22662;BME280;11497;52.222;21.246;2023-04-26T04:00:12;99667.00;;;6.25;100.00
22662;BME280;11497;52.222;21.246;2023-04-26T04:02:43;99665.22;;;6.27;100.00
22662;BME280;11497;52.222;21.246;2023-04-26T04:05:20;99671.34;;;6.25;100.00
22662;BME280;11497;52.222;21.246;2023-04-26T04:07:48;99672.16;;;6.27;100.00
22662;BME280;11497;52.222;21.246;2023-04-26T04:10:16;99664.47;;;6.22;100.00
22662;BME280;11497;52.222;21.246;2023-04-26T04:12:45;99673.81;;;6.29;100.00
22662;BME280;11497;52.222;21.246;2023-04-26T04:15:13;99666.84;;;6.31;100.00
22662;BME280;11497;52.222;21.246;2023-04-26T04:17:45;99669.97;;;6.44;100.00
22662;BME280;11497;52.222;21.246;2023-04-26T04:20:14;99675.97;;;6.46;100.00
22662;BME280;11497;52.222;21.246;2023-04-26T04:22:42;99676.00;;;6.45;100.00
22662;BME280;11497;52.222;21.246;2023-04-26T04:25:10;99678.56;;;6.46;100.00
22662;BME280;11497;52.222;21.246;2023-04-26T04:27:39;99678.59;;;6.45;100.00
22662;BME280;11497;52.222;21.246;2023-04-26T04:30:10;99674.38;;;6.41;100.00
22662;BME280;11497;52.222;21.246;2023-04-26T04:32:39;99680.69;;;6.92;100.00
22662;BME280;11497;52.222;21.246;2023-04-26T04:35:11;99684.25;;;7.44;100.00
22662;BME280;11497;52.222;21.246;2023-04-26T04:37:40;99683.50;;;8.91;100.00
22662;BME280;11497;52.222;21.246;2023-04-26T04:40:11;99677.88;;;10.08;99.40
22662;BME280;11497;52.222;21.246;2023-04-26T04:42:42;99688.09;;;10.14;92.05
22662;BME280;11497;52.222;21.246;2023-04-26T04:45:12;99680.16;;;9.53;88.85
22662;BME280;11497;52.222;21.246;2023-04-26T04:47:44;99695.81;;;9.33;87.53
22662;BME280;11497;52.222;21.246;2023-04-26T04:50:13;99695.66;;;10.22;85.30
22662;BME280;11497;52.222;21.246;2023-04-26T04:52:42;99701.47;;;10.07;82.11
22662;BME280;11497;52.222;21.246;2023-04-26T04:55:10;99700.50;;;9.89;81.42
22662;BME280;11497;52.222;21.246;2023-04-26T04:57:39;99711.28;;;10.62;79.62
22662;BME280;11497;52.222;21.246;2023-04-26T05:00:10;99703.50;;;10.61;76.55
22662;BME280;11497;52.222;21.246;2023-04-26T05:02:53;99705.53;;;10.75;76.32
22662;BME280;11497;52.222;21.246;2023-04-26T05:05:21;99710.06;;;11.63;73.62
22662;BME280;11497;52.222;21.246;2023-04-26T05:07:49;99704.09;;;12.30;69.96
22662;BME280;11497;52.222;21.246;2023-04-26T05:10:17;99715.28;;;12.84;66.94
22662;BME280;11497;52.222;21.246;2023-04-26T05:12:45;99724.59;;;13.23;62.48
22662;BME280;11497;52.222;21.246;2023-04-26T05:15:13;99723.34;;;15.63;59.23
22662;BME280;11497;52.222;21.246;2023-04-26T05:17:41;99723.25;;;15.92;54.41
22662;BME280;11497;52.222;21.246;2023-04-26T05:20:16;99725.31;;;14.48;54.47
22662;BME280;11497;52.222;21.246;2023-04-26T05:22:44;99734.16;;;13.55;55.23
22662;BME280;11497;52.222;21.246;2023-04-26T05:25:12;99730.03;;;13.36;56.02
22662;BME280;11497;52.222;21.246;2023-04-26T05:27:42;99737.34;;;15.23;54.60
22662;BME280;11497;52.222;21.246;2023-04-26T05:30:19;99739.72;;;15.13;51.58
22662;BME280;11497;52.222;21.246;2023-04-26T05:33:06;99739.69;;;13.35;53.86
22662;BME280;11497;52.222;21.246;2023-04-26T05:35:49;99745.53;;;13.72;54.96
22662;BME280;11497;52.222;21.246;2023-04-26T05:38:16;99740.50;;;13.83;55.56
22662;BME280;11497;52.222;21.246;2023-04-26T05:40:45;99753.56;;;15.03;52.33
22662;BME280;11497;52.222;21.246;2023-04-26T05:43:15;99751.06;;;15.42;51.32
22662;BME280;11497;52.222;21.246;2023-04-26T05:45:53;99752.94;;;15.40;48.79
22662;BME280;11497;52.222;21.246;2023-04-26T05:48:21;99757.22;;;14.27;49.71
22662;BME280;11497;52.222;21.246;2023-04-26T05:50:50;99751.38;;;14.22;51.54
22662;BME280;11497;52.222;21.246;2023-04-26T05:53:19;99756.38;;;13.50;52.20
22662;BME280;11497;52.222;21.246;2023-04-26T05:55:47;99750.28;;;13.18;52.29
22662;BME280;11497;52.222;21.246;2023-04-26T05:58:15;99759.53;;;13.56;52.58
22662;BME280;11497;52.222;21.246;2023-04-26T06:00:43;99768.78;;;13.15;52.71
22662;BME280;11497;52.222;21.246;2023-04-26T06:03:11;99774.13;;;12.80;52.99
22662;BME280;11497;52.222;21.246;2023-04-26T06:05:40;99777.94;;;13.08;52.78
22662;BME280;11497;52.222;21.246;2023-04-26T06:08:08;99780.47;;;12.76;52.69
22662;BME280;11497;52.222;21.246;2023-04-26T06:10:36;99777.50;;;12.49;53.50
22662;BME280;11497;52.222;21.246;2023-04-26T06:13:06;99785.75;;;12.59;53.52
22662;BME280;11497;52.222;21.246;2023-04-26T06:15:36;99780.84;;;11.82;53.85
22662;BME280;11497;52.222;21.246;2023-04-26T06:18:05;99784.34;;;12.00;54.64
22662;BME280;11497;52.222;21.246;2023-04-26T06:20:33;99781.88;;;12.14;54.16
22662;BME280;11497;52.222;21.246;2023-04-26T06:23:02;99791.44;;;12.15;53.95
22662;BME280;11497;52.222;21.246;2023-04-26T06:25:30;99776.16;;;12.75;53.46
22662;BME280;11497;52.222;21.246;2023-04-26T06:27:58;99782.41;;;13.06;52.02
22662;BME280;11497;52.222;21.246;2023-04-26T06:30:27;99782.50;;;13.04;51.59
22662;BME280;11497;52.222;21.246;2023-04-26T06:32:55;99782.56;;;13.03;51.43
22662;BME280;11497;52.222;21.246;2023-04-26T06:35:25;99783.84;;;13.44;51.11
22662;BME280;11497;52.222;21.246;2023-04-26T06:37:53;99782.69;;;13.65;50.84
22662;BME280;11497;52.222;21.246;2023-04-26T06:40:21;99778.34;;;13.64;50.09
22662;BME280;11497;52.222;21.246;2023-04-26T06:42:49;99777.63;;;13.92;50.38
22662;BME280;11497;52.222;21.246;2023-04-26T06:45:36;99775.69;;;13.96;50.01
22662;BME280;11497;52.222;21.246;2023-04-26T06:48:04;99786.75;;;13.55;50.21
22662;BME280;11497;52.222;21.246;2023-04-26T06:50:36;99777.59;;;13.31;50.01
22662;BME280;11497;52.222;21.246;2023-04-26T06:53:04;99778.09;;;13.53;49.55
22662;BME280;11497;52.222;21.246;2023-04-26T06:55:32;99771.47;;;13.30;49.37
22662;BME280;11497;52.222;21.246;2023-04-26T06:58:00;99775.00;;;14.68;48.62
22662;BME280;11497;52.222;21.246;2023-04-26T07:00:28;99782.81;;;16.48;46.58
22662;BME280;11497;52.222;21.246;2023-04-26T07:02:56;99784.69;;;16.73;44.46
22662;BME280;11497;52.222;21.246;2023-04-26T07:05:25;99777.84;;;17.45;43.42
22662;BME280;11497;52.222;21.246;2023-04-26T07:07:52;99791.19;;;16.15;42.39
22662;BME280;11497;52.222;21.246;2023-04-26T07:10:20;99784.78;;;16.72;43.38
22662;BME280;11497;52.222;21.246;2023-04-26T07:12:48;99786.72;;;16.55;42.24
22662;BME280;11497;52.222;21.246;2023-04-26T07:15:16;99792.13;;;16.14;42.02
22662;BME280;11497;52.222;21.246;2023-04-26T07:17:44;99789.94;;;16.99;41.83
22662;BME280;11497;52.222;21.246;2023-04-26T07:20:12;99792.84;;;17.94;40.03
22662;BME280;11497;52.222;21.246;2023-04-26T07:22:42;99791.88;;;16.05;39.79
22662;BME280;11497;52.222;21.246;2023-04-26T07:25:10;99791.75;;;14.81;40.37
22662;BME280;11497;52.222;21.246;2023-04-26T07:27:38;99799.88;;;14.32;41.39
22662;BME280;11497;52.222;21.246;2023-04-26T07:30:06;99802.28;;;14.81;41.84
22662;BME280;11497;52.222;21.246;2023-04-26T07:32:34;99790.81;;;17.12;39.60
22662;BME280;11497;52.222;21.246;2023-04-26T07:35:06;99803.47;;;17.32;37.57
22662;BME280;11497;52.222;21.246;2023-04-26T07:37:35;99801.59;;;16.83;37.17
22662;BME280;11497;52.222;21.246;2023-04-26T07:40:03;99806.06;;;17.57;35.87
22662;BME280;11497;52.222;21.246;2023-04-26T07:42:31;99803.69;;;17.78;35.05
22662;BME280;11497;52.222;21.246;2023-04-26T07:44:59;99800.03;;;18.40;34.61
22662;BME280;11497;52.222;21.246;2023-04-26T07:47:27;99799.72;;;19.24;33.07
22662;BME280;11497;52.222;21.246;2023-04-26T07:49:55;99802.59;;;18.87;33.30
22662;BME280;11497;52.222;21.246;2023-04-26T07:52:23;99810.44;;;19.89;32.18
22662;BME280;11497;52.222;21.246;2023-04-26T07:54:51;99816.59;;;20.22;31.57
22662;BME280;11497;52.222;21.246;2023-04-26T07:57:18;99815.53;;;18.33;31.47
22662;BME280;11497;52.222;21.246;2023-04-26T07:59:46;99816.41;;;18.10;32.71
22662;BME280;11497;52.222;21.246;2023-04-26T08:02:14;99820.81;;;18.92;32.16
22662;BME280;11497;52.222;21.246;2023-04-26T08:04:48;99823.78;;;19.99;31.43
22662;BME280;11497;52.222;21.246;2023-04-26T08:07:17;99821.56;;;19.39;31.24
22662;BME280;11497;52.222;21.246;2023-04-26T08:09:46;99823.38;;;19.60;30.88
22662;BME280;11497;52.222;21.246;2023-04-26T08:12:15;99823.16;;;18.14;31.35
22662;BME280;11497;52.222;21.246;2023-04-26T08:14:43;99829.09;;;18.17;32.23
22662;BME280;11497;52.222;21.246;2023-04-26T08:17:10;99825.53;;;19.33;30.60
22662;BME280;11497;52.222;21.246;2023-04-26T08:19:39;99816.94;;;18.50;30.90
22662;BME280;11497;52.222;21.246;2023-04-26T08:22:07;99821.44;;;19.63;30.57
22662;BME280;11497;52.222;21.246;2023-04-26T08:24:35;99823.22;;;20.27;30.08
22662;BME280;11497;52.222;21.246;2023-04-26T08:27:03;99817.41;;;20.34;30.17
22662;BME280;11497;52.222;21.246;2023-04-26T08:29:31;99829.16;;;19.77;29.21
22662;BME280;11497;52.222;21.246;2023-04-26T08:31:58;99827.88;;;17.48;30.42
22662;BME280;11497;52.222;21.246;2023-04-26T08:34:26;99837.53;;;16.99;31.58
22662;BME280;11497;52.222;21.246;2023-04-26T08:36:55;99826.53;;;16.40;32.97
22662;BME280;11497;52.222;21.246;2023-04-26T08:39:24;99833.59;;;15.58;33.12
22662;BME280;11497;52.222;21.246;2023-04-26T08:41:53;99838.06;;;14.10;34.83
22662;BME280;11497;52.222;21.246;2023-04-26T08:44:23;99848.59;;;12.79;36.41
22662;BME280;11497;52.222;21.246;2023-04-26T08:49:52;99846.78;;;14.10;38.63
22662;BME280;11497;52.222;21.246;2023-04-26T08:52:30;99840.63;;;15.01;37.57
22662;BME280;11497;52.222;21.246;2023-04-26T08:54:59;99845.94;;;14.25;37.01
22662;BME280;11497;52.222;21.246;2023-04-26T08:57:27;99841.94;;;15.51;37.49
22662;BME280;11497;52.222;21.246;2023-04-26T08:59:58;99835.53;;;16.50;35.28
22662;BME280;11497;52.222;21.246;2023-04-26T09:02:26;99838.47;;;15.50;35.07
22662;BME280;11497;52.222;21.246;2023-04-26T09:04:54;99845.41;;;14.94;35.67
22662;BME280;11497;52.222;21.246;2023-04-26T09:07:34;99845.44;;;14.03;36.96
22662;BME280;11497;52.222;21.246;2023-04-26T09:10:04;99846.25;;;13.25;38.48
22662;BME280;11497;52.222;21.246;2023-04-26T09:12:33;99853.84;;;12.79;39.53
22662;BME280;11497;52.222;21.246;2023-04-26T09:15:02;99848.22;;;12.16;40.38
22662;BME280;11497;52.222;21.246;2023-04-26T09:17:32;99849.91;;;11.81;41.10
22662;BME280;11497;52.222;21.246;2023-04-26T09:20:16;99855.34;;;11.39;42.11
22662;BME280;11497;52.222;21.246;2023-04-26T09:22:44;99861.97;;;11.66;42.36
22662;BME280;11497;52.222;21.246;2023-04-26T09:25:15;99863.25;;;12.31;42.39
22662;BME280;11497;52.222;21.246;2023-04-26T09:27:43;99853.06;;;14.23;40.31
22662;BME280;11497;52.222;21.246;2023-04-26T09:30:15;99860.94;;;14.55;38.73
22662;BME280;11497;52.222;21.246;2023-04-26T09:32:59;99861.91;;;13.91;38.38
22662;BME280;11497;52.222;21.246;2023-04-26T09:35:37;99857.34;;;13.30;38.62
22662;BME280;11497;52.222;21.246;2023-04-26T09:38:06;99866.53;;;12.54;39.87
22662;BME280;11497;52.222;21.246;2023-04-26T09:45:57;99864.91;;;10.60;42.19
22662;BME280;11497;52.222;21.246;2023-04-26T09:48:27;99869.53;;;10.54;42.55
22662;BME280;11497;52.222;21.246;2023-04-26T09:51:07;99872.19;;;10.32;42.65
22662;BME280;11497;52.222;21.246;2023-04-26T09:53:40;99868.47;;;10.38;43.58
22662;BME280;11497;52.222;21.246;2023-04-26T09:56:13;99868.75;;;10.52;44.00
22662;BME280;11497;52.222;21.246;2023-04-26T10:01:26;99874.38;;;9.76;45.74
22662;BME280;11497;52.222;21.246;2023-04-26T10:03:58;99874.63;;;9.46;46.77
22662;BME280;11497;52.222;21.246;2023-04-26T10:06:27;99868.44;;;9.49;47.00
22662;BME280;11497;52.222;21.246;2023-04-26T10:08:56;99871.44;;;9.61;47.40
22662;BME280;11497;52.222;21.246;2023-04-26T10:11:25;99863.75;;;10.02;47.21
22662;BME280;11497;52.222;21.246;2023-04-26T10:13:53;99871.03;;;10.39;46.61
22662;BME280;11497;52.222;21.246;2023-04-26T10:16:21;99875.69;;;11.14;45.17
22662;BME280;11497;52.222;21.246;2023-04-26T10:18:50;99879.47;;;11.85;44.16
22662;BME280;11497;52.222;21.246;2023-04-26T10:21:30;99872.28;;;11.51;41.76
22662;BME280;11497;52.222;21.246;2023-04-26T10:24:02;99880.84;;;11.54;41.44
22662;BME280;11497;52.222;21.246;2023-04-26T10:26:50;99883.41;;;11.56;41.18
22662;BME280;11497;52.222;21.246;2023-04-26T10:32:14;99885.75;;;11.62;41.61
22662;BME280;11497;52.222;21.246;2023-04-26T10:35:10;99888.13;;;11.87;41.14
22662;BME280;11497;52.222;21.246;2023-04-26T10:43:29;99897.09;;;11.62;40.88
22662;BME280;11497;52.222;21.246;2023-04-26T10:45:57;99897.72;;;11.68;40.89
22662;BME280;11497;52.222;21.246;2023-04-26T10:48:45;99900.69;;;11.00;40.53
22662;BME280;11497;52.222;21.246;2023-04-26T10:51:13;99903.31;;;11.00;40.90
22662;BME280;11497;52.222;21.246;2023-04-26T10:59:10;99909.31;;;11.43;41.15
22662;BME280;11497;52.222;21.246;2023-04-26T11:01:41;99895.00;;;11.50;40.00
22662;BME280;11497;52.222;21.246;2023-04-26T11:04:11;99913.41;;;11.88;39.43
22662;BME280;11497;52.222;21.246;2023-04-26T11:06:55;99896.84;;;12.06;38.22
22662;BME280;11497;52.222;21.246;2023-04-26T11:12:10;99903.09;;;12.40;38.20
22662;BME280;11497;52.222;21.246;2023-04-26T11:14:42;99909.22;;;11.84;37.56
22662;BME280;11497;52.222;21.246;2023-04-26T11:17:10;99899.88;;;11.39;37.08
22662;BME280;11497;52.222;21.246;2023-04-26T11:19:39;99911.53;;;11.32;37.47
22662;BME280;11497;52.222;21.246;2023-04-26T11:22:08;99910.88;;;11.47;37.48
22662;BME280;11497;52.222;21.246;2023-04-26T11:24:36;99913.75;;;12.18;37.48
22662;BME280;11497;52.222;21.246;2023-04-26T11:27:09;99907.44;;;12.75;37.26
22662;BME280;11497;52.222;21.246;2023-04-26T11:29:38;99906.34;;;13.14;36.78
22662;BME280;11497;52.222;21.246;2023-04-26T11:32:06;99913.41;;;13.46;36.52
22662;BME280;11497;52.222;21.246;2023-04-26T11:34:36;99913.78;;;13.40;35.86
22662;BME280;11497;52.222;21.246;2023-04-26T11:37:06;99924.44;;;13.37;35.90
22662;BME280;11497;52.222;21.246;2023-04-26T11:39:35;99930.94;;;13.63;36.14
22662;BME280;11497;52.222;21.246;2023-04-26T11:42:11;99932.63;;;12.79;35.68
22662;BME280;11497;52.222;21.246;2023-04-26T11:44:40;99932.44;;;12.29;36.16
22662;BME280;11497;52.222;21.246;2023-04-26T11:47:08;99926.34;;;12.28;36.60
22662;BME280;11497;52.222;21.246;2023-04-26T11:49:37;99934.03;;;12.14;37.10
22662;BME280;11497;52.222;21.246;2023-04-26T11:52:07;99927.53;;;12.04;37.49
22662;BME280;11497;52.222;21.246;2023-04-26T11:54:36;99935.28;;;11.68;38.07
22662;BME280;11497;52.222;21.246;2023-04-26T11:57:15;99939.16;;;11.98;39.00
22662;BME280;11497;52.222;21.246;2023-04-26T11:59:45;99940.25;;;12.30;39.17
22662;BME280;11497;52.222;21.246;2023-04-26T12:02:13;99930.78;;;11.90;38.84
22662;BME280;11497;52.222;21.246;2023-04-26T12:04:41;99927.25;;;12.10;38.63
22662;BME280;11497;52.222;21.246;2023-04-26T12:07:10;99929.09;;;12.08;38.49
22662;BME280;11497;52.222;21.246;2023-04-26T12:09:40;99920.81;;;12.35;37.40
22662;BME280;11497;52.222;21.246;2023-04-26T12:12:10;99919.88;;;12.54;36.55
22662;BME280;11497;52.222;21.246;2023-04-26T12:14:39;99943.56;;;12.53;35.96
22662;BME280;11497;52.222;21.246;2023-04-26T12:17:07;99941.84;;;11.97;35.96
22662;BME280;11497;52.222;21.246;2023-04-26T12:19:38;99942.19;;;11.50;36.29
22662;BME280;11497;52.222;21.246;2023-04-26T12:22:07;99945.31;;;11.19;37.17
22662;BME280;11497;52.222;21.246;2023-04-26T12:24:35;99951.31;;;10.81;37.90
22662;BME280;11497;52.222;21.246;2023-04-26T12:27:05;99955.94;;;10.74;38.47
22662;BME280;11497;52.222;21.246;2023-04-26T12:29:34;99964.56;;;10.54;38.85
22662;BME280;11497;52.222;21.246;2023-04-26T12:32:02;99957.34;;;10.16;39.37
22662;BME280;11497;52.222;21.246;2023-04-26T12:34:31;99956.59;;;9.90;39.80
22662;BME280;11497;52.222;21.246;2023-04-26T12:36:58;99957.06;;;10.00;40.31
22662;BME280;11497;52.222;21.246;2023-04-26T12:39:27;99966.75;;;9.75;40.67
22662;BME280;11497;52.222;21.246;2023-04-26T12:41:54;99976.53;;;9.93;40.95
22662;BME280;11497;52.222;21.246;2023-04-26T12:44:22;99966.19;;;9.90;41.34
22662;BME280;11497;52.222;21.246;2023-04-26T12:46:50;99969.00;;;10.07;41.21
22662;BME280;11497;52.222;21.246;2023-04-26T12:49:18;99979.50;;;10.30;41.22
22662;BME280;11497;52.222;21.246;2023-04-26T12:51:46;99975.97;;;10.31;40.66
22662;BME280;11497;52.222;21.246;2023-04-26T12:54:14;99972.50;;;10.53;40.67
22662;BME280;11497;52.222;21.246;2023-04-26T12:56:41;99985.75;;;10.48;40.57
22662;BME280;11497;52.222;21.246;2023-04-26T12:59:11;99985.50;;;10.09;40.94
22662;BME280;11497;52.222;21.246;2023-04-26T13:01:39;99981.97;;;10.10;41.12
22662;BME280;11497;52.222;21.246;2023-04-26T13:04:08;99991.16;;;9.97;40.96
22662;BME280;11497;52.222;21.246;2023-04-26T13:06:36;99995.97;;;9.86;40.59
22662;BME280;11497;52.222;21.246;2023-04-26T13:09:04;99997.91;;;9.81;41.10
22662;BME280;11497;52.222;21.246;2023-04-26T13:11:34;99993.63;;;9.78;40.57
22662;BME280;11497;52.222;21.246;2023-04-26T13:14:02;99994.38;;;9.82;40.62
22662;BME280;11497;52.222;21.246;2023-04-26T13:16:31;99996.09;;;10.29;40.86
22662;BME280;11497;52.222;21.246;2023-04-26T13:18:59;99986.25;;;10.80;39.98
22662;BME280;11497;52.222;21.246;2023-04-26T13:21:27;99986.81;;;10.86;39.28
22662;BME280;11497;52.222;21.246;2023-04-26T13:23:55;99993.97;;;11.25;39.01
22662;BME280;11497;52.222;21.246;2023-04-26T13:26:23;99988.31;;;11.34;38.84
22662;BME280;11497;52.222;21.246;2023-04-26T13:28:54;99994.34;;;11.16;38.78
22662;BME280;11497;52.222;21.246;2023-04-26T13:31:22;99993.66;;;11.31;38.71